Aviation Digital Data Service (ADDS)

Output produced by METARs form (0702 UTC 24 March 2019)
found at http://www.aviationweather.gov/metar/data/
 
TAF HUEN 240500Z 2406/2512 18013KT 9999 FEW023 FEW024CB SCT130 
     TEMPO 2408/2410 TS SCT021 FEW022 BKN130 FM 24200 32008KT 
     TEMPO 2502/2505 VRB10KT 9000 -TSRA SCT018 FEW020CB BKN110